Dunoon, United Kingdom
Current Conditions -  °F | °C
As of 10:50 AM on Wednesday 22 Oct 2014 (Local Time) from EGPF Reporting Station
Broken Clouds Broken Clouds  
Wind Chill: 52°   Ceiling: 900
Heat Index: 52°   Visibility: 6mi
Dew Point: 50°   Wind: 16mph
Humidity: 94%   Direction: 230°SW
Pressure: 30.06"   Gusts: NA
Location:  55.95°N, 4.92°W
Report Text: EGPF 220950Z AUTO 23014KT 9999 BKN009 11/10 Q1018
Loading
Personal Weather Stations






























Interactive Weather Map
Tropical Storm Tracking
New forecast layout! Learn more

10-Day Weather Forecast

Advertisements
Track Severe Weather on mobile